sensor_id;sensor_type;location;lat;lon;timestamp;pressure;altitude;pressure_sealevel;temperature;humidity
47522;BME280;32291;52.010;4.446;2023-09-08T00:00:53;77596.06;;;-144.67;100.00
47522;BME280;32291;52.010;4.446;2023-09-08T00:02:00;77587.50;;;-144.67;100.00
47522;BME280;32291;52.010;4.446;2023-09-08T00:03:03;77593.91;;;-144.67;100.00
47522;BME280;32291;52.010;4.446;2023-09-08T00:04:05;77591.78;;;-144.67;100.00
47522;BME280;32291;52.010;4.446;2023-09-08T00:05:08;77585.38;;;-144.67;100.00
47522;BME280;32291;52.010;4.446;2023-09-08T00:06:16;77591.78;;;-144.67;100.00
47522;BME280;32291;52.010;4.446;2023-09-08T00:07:18;77589.66;;;-144.67;100.00
47522;BME280;32291;52.010;4.446;2023-09-08T00:08:23;77593.91;;;-144.67;100.00
47522;BME280;32291;52.010;4.446;2023-09-08T00:09:26;77589.66;;;-144.67;100.00
47522;BME280;32291;52.010;4.446;2023-09-08T00:10:31;77591.78;;;-144.67;100.00
47522;BME280;32291;52.010;4.446;2023-09-08T00:11:33;77593.91;;;-144.67;100.00
47522;BME280;32291;52.010;4.446;2023-09-08T00:12:38;77596.06;;;-144.67;100.00
47522;BME280;32291;52.010;4.446;2023-09-08T00:13:41;77596.06;;;-144.67;100.00
47522;BME280;32291;52.010;4.446;2023-09-08T00:14:43;77602.50;;;-144.67;100.00
47522;BME280;32291;52.010;4.446;2023-09-08T00:15:46;77606.75;;;-144.67;100.00
47522;BME280;32291;52.010;4.446;2023-09-08T00:16:56;77615.31;;;-144.67;100.00
47522;BME280;32291;52.010;4.446;2023-09-08T00:17:58;77606.75;;;-144.67;100.00
47522;BME280;32291;52.010;4.446;2023-09-08T00:19:03;77608.91;;;-144.67;100.00
47522;BME280;32291;52.010;4.446;2023-09-08T00:20:12;77611.03;;;-144.67;100.00
47522;BME280;32291;52.010;4.446;2023-09-08T00:21:15;77611.03;;;-144.67;100.00
47522;BME280;32291;52.010;4.446;2023-09-08T00:22:18;77619.63;;;-144.67;100.00
47522;BME280;32291;52.010;4.446;2023-09-08T00:23:29;77617.47;;;-144.67;100.00
47522;BME280;32291;52.010;4.446;2023-09-08T00:24:31;77619.63;;;-144.67;100.00
47522;BME280;32291;52.010;4.446;2023-09-08T00:25:34;77623.88;;;-144.67;100.00
47522;BME280;32291;52.010;4.446;2023-09-08T00:26:36;77628.16;;;-144.67;100.00
47522;BME280;32291;52.010;4.446;2023-09-08T00:27:38;77626.03;;;-144.67;100.00
47522;BME280;32291;52.010;4.446;2023-09-08T00:28:43;77628.16;;;-144.67;100.00
47522;BME280;32291;52.010;4.446;2023-09-08T00:29:45;77636.72;;;-144.67;100.00
47522;BME280;32291;52.010;4.446;2023-09-08T00:30:48;77632.44;;;-144.67;100.00
47522;BME280;32291;52.010;4.446;2023-09-08T00:31:55;77632.44;;;-144.67;100.00
47522;BME280;32291;52.010;4.446;2023-09-08T00:33:00;77634.59;;;-144.67;100.00
47522;BME280;32291;52.010;4.446;2023-09-08T00:34:07;77632.44;;;-144.67;100.00
47522;BME280;32291;52.010;4.446;2023-09-08T00:35:14;77641.00;;;-144.67;100.00
47522;BME280;32291;52.010;4.446;2023-09-08T00:36:17;77641.00;;;-144.67;100.00
47522;BME280;32291;52.010;4.446;2023-09-08T00:37:25;77636.72;;;-144.67;100.00
47522;BME280;32291;52.010;4.446;2023-09-08T00:38:31;77645.28;;;-144.67;100.00
47522;BME280;32291;52.010;4.446;2023-09-08T00:39:37;77641.00;;;-144.67;100.00
47522;BME280;32291;52.010;4.446;2023-09-08T00:40:42;77643.16;;;-144.67;100.00
47522;BME280;32291;52.010;4.446;2023-09-08T00:41:47;77647.44;;;-144.67;100.00
47522;BME280;32291;52.010;4.446;2023-09-08T00:42:50;77641.00;;;-144.67;100.00
47522;BME280;32291;52.010;4.446;2023-09-08T00:43:53;77641.00;;;-144.67;100.00
47522;BME280;32291;52.010;4.446;2023-09-08T00:45:00;77643.16;;;-144.67;100.00
47522;BME280;32291;52.010;4.446;2023-09-08T00:46:08;77649.56;;;-144.67;100.00
47522;BME280;32291;52.010;4.446;2023-09-08T00:47:14;77656.00;;;-144.67;100.00
47522;BME280;32291;52.010;4.446;2023-09-08T00:48:17;77653.84;;;-144.67;100.00
47522;BME280;32291;52.010;4.446;2023-09-08T00:49:21;77651.72;;;-144.67;100.00
47522;BME280;32291;52.010;4.446;2023-09-08T00:50:23;77658.13;;;-144.67;100.00
47522;BME280;32291;52.010;4.446;2023-09-08T00:51:36;77658.13;;;-144.67;100.00
47522;BME280;32291;52.010;4.446;2023-09-08T00:52:42;77662.41;;;-144.67;100.00
47522;BME280;32291;52.010;4.446;2023-09-08T00:53:47;77658.13;;;-144.67;100.00
47522;BME280;32291;52.010;4.446;2023-09-08T00:54:53;77658.13;;;-144.67;100.00
47522;BME280;32291;52.010;4.446;2023-09-08T00:56:00;77658.13;;;-144.67;100.00
47522;BME280;32291;52.010;4.446;2023-09-08T00:57:03;77658.13;;;-144.67;100.00
47522;BME280;32291;52.010;4.446;2023-09-08T00:58:14;77666.69;;;-144.67;100.00
47522;BME280;32291;52.010;4.446;2023-09-08T00:59:21;77658.13;;;-144.67;100.00
47522;BME280;32291;52.010;4.446;2023-09-08T01:00:29;77658.13;;;-144.67;100.00
47522;BME280;32291;52.010;4.446;2023-09-08T01:01:36;77670.97;;;-144.67;100.00
47522;BME280;32291;52.010;4.446;2023-09-08T01:02:38;77649.56;;;-144.67;100.00
47522;BME280;32291;52.010;4.446;2023-09-08T01:03:41;77658.13;;;-144.67;100.00
47522;BME280;32291;52.010;4.446;2023-09-08T01:04:48;77664.56;;;-144.67;100.00
47522;BME280;32291;52.010;4.446;2023-09-08T01:05:55;77666.69;;;-144.67;100.00
47522;BME280;32291;52.010;4.446;2023-09-08T01:07:04;77662.41;;;-144.67;100.00
47522;BME280;32291;52.010;4.446;2023-09-08T01:08:08;77666.69;;;-144.67;100.00
47522;BME280;32291;52.010;4.446;2023-09-08T01:09:17;77666.69;;;-144.67;100.00
47522;BME280;32291;52.010;4.446;2023-09-08T01:10:19;77668.84;;;-144.67;100.00
47522;BME280;32291;52.010;4.446;2023-09-08T01:11:26;77668.84;;;-144.67;100.00
47522;BME280;32291;52.010;4.446;2023-09-08T01:12:34;77668.84;;;-144.67;100.00
47522;BME280;32291;52.010;4.446;2023-09-08T01:13:37;77673.13;;;-144.67;100.00
47522;BME280;32291;52.010;4.446;2023-09-08T01:14:44;77675.25;;;-144.67;100.00
47522;BME280;32291;52.010;4.446;2023-09-08T01:15:46;77668.84;;;-144.67;100.00
47522;BME280;32291;52.010;4.446;2023-09-08T01:16:50;77677.41;;;-144.67;100.00
47522;BME280;32291;52.010;4.446;2023-09-08T01:17:59;77681.69;;;-144.67;100.00
47522;BME280;32291;52.010;4.446;2023-09-08T01:19:03;77673.13;;;-144.67;100.00
47522;BME280;32291;52.010;4.446;2023-09-08T01:20:19;77679.53;;;-144.67;100.00
47522;BME280;32291;52.010;4.446;2023-09-08T01:26:20;77688.09;;;-144.67;100.00
47522;BME280;32291;52.010;4.446;2023-09-08T01:27:35;77688.09;;;-144.67;100.00
47522;BME280;32291;52.010;4.446;2023-09-08T01:28:41;77683.81;;;-144.67;100.00
47522;BME280;32291;52.010;4.446;2023-09-08T01:29:47;77694.53;;;-144.67;100.00
47522;BME280;32291;52.010;4.446;2023-09-08T01:30:58;77688.09;;;-144.67;100.00
47522;BME280;32291;52.010;4.446;2023-09-08T01:32:01;77690.25;;;-144.67;100.00
47522;BME280;32291;52.010;4.446;2023-09-08T01:33:11;77688.09;;;-144.67;100.00
47522;BME280;32291;52.010;4.446;2023-09-08T01:34:14;77688.09;;;-144.67;100.00
47522;BME280;32291;52.010;4.446;2023-09-08T01:35:16;77692.38;;;-144.67;100.00
47522;BME280;32291;52.010;4.446;2023-09-08T01:36:19;77688.09;;;-144.67;100.00
47522;BME280;32291;52.010;4.446;2023-09-08T01:37:26;77692.38;;;-144.67;100.00
47522;BME280;32291;52.010;4.446;2023-09-08T01:38:35;77694.53;;;-144.67;100.00
47522;BME280;32291;52.010;4.446;2023-09-08T01:39:38;77694.53;;;-144.67;100.00
47522;BME280;32291;52.010;4.446;2023-09-08T01:40:43;77696.66;;;-144.67;100.00
47522;BME280;32291;52.010;4.446;2023-09-08T01:41:48;77696.66;;;-144.67;100.00
47522;BME280;32291;52.010;4.446;2023-09-08T01:42:53;77692.38;;;-144.67;100.00
47522;BME280;32291;52.010;4.446;2023-09-08T01:43:59;77700.94;;;-144.67;100.00
47522;BME280;32291;52.010;4.446;2023-09-08T01:45:02;77700.94;;;-144.67;100.00
47522;BME280;32291;52.010;4.446;2023-09-08T01:46:04;77698.81;;;-144.67;100.00
47522;BME280;32291;52.010;4.446;2023-09-08T01:47:06;77700.94;;;-144.67;100.00
47522;BME280;32291;52.010;4.446;2023-09-08T01:48:08;77700.94;;;-144.67;100.00
47522;BME280;32291;52.010;4.446;2023-09-08T01:49:11;77705.22;;;-144.67;100.00
47522;BME280;32291;52.010;4.446;2023-09-08T01:50:16;77696.66;;;-144.67;100.00
47522;BME280;32291;52.010;4.446;2023-09-08T01:51:23;77700.94;;;-144.67;100.00
47522;BME280;32291;52.010;4.446;2023-09-08T01:52:31;77698.81;;;-144.67;100.00
47522;BME280;32291;52.010;4.446;2023-09-08T01:53:34;77696.66;;;-144.67;100.00
47522;BME280;32291;52.010;4.446;2023-09-08T01:54:36;77694.53;;;-144.67;100.00
47522;BME280;32291;52.010;4.446;2023-09-08T01:55:39;77692.38;;;-144.67;100.00
47522;BME280;32291;52.010;4.446;2023-09-08T01:56:46;77700.94;;;-144.67;100.00
47522;BME280;32291;52.010;4.446;2023-09-08T01:57:48;77696.66;;;-144.67;100.00
47522;BME280;32291;52.010;4.446;2023-09-08T01:58:53;77696.66;;;-144.67;100.00
47522;BME280;32291;52.010;4.446;2023-09-08T02:00:05;77700.94;;;-144.67;100.00
47522;BME280;32291;52.010;4.446;2023-09-08T02:01:08;77696.66;;;-144.67;100.00
47522;BME280;32291;52.010;4.446;2023-09-08T02:02:11;77696.66;;;-144.67;100.00
47522;BME280;32291;52.010;4.446;2023-09-08T02:03:13;77694.53;;;-144.67;100.00
47522;BME280;32291;52.010;4.446;2023-09-08T02:04:17;77698.81;;;-144.67;100.00
47522;BME280;32291;52.010;4.446;2023-09-08T02:05:19;77700.94;;;-144.67;100.00
47522;BME280;32291;52.010;4.446;2023-09-08T02:06:22;77703.09;;;-144.67;100.00
47522;BME280;32291;52.010;4.446;2023-09-08T02:07:31;77700.94;;;-144.67;100.00
47522;BME280;32291;52.010;4.446;2023-09-08T02:08:33;77698.81;;;-144.67;100.00
47522;BME280;32291;52.010;4.446;2023-09-08T02:09:40;77696.66;;;-144.67;100.00
47522;BME280;32291;52.010;4.446;2023-09-08T02:10:44;77705.22;;;-144.67;100.00
47522;BME280;32291;52.010;4.446;2023-09-08T02:11:46;77703.09;;;-144.67;100.00
47522;BME280;32291;52.010;4.446;2023-09-08T02:12:49;77705.22;;;-144.67;100.00
47522;BME280;32291;52.010;4.446;2023-09-08T02:13:52;77700.94;;;-144.67;100.00
47522;BME280;32291;52.010;4.446;2023-09-08T02:14:55;77705.22;;;-144.67;100.00
47522;BME280;32291;52.010;4.446;2023-09-08T02:16:00;77707.38;;;-144.67;100.00
47522;BME280;32291;52.010;4.446;2023-09-08T02:17:03;77705.22;;;-144.67;100.00
47522;BME280;32291;52.010;4.446;2023-09-08T02:18:10;77709.50;;;-144.67;100.00
47522;BME280;32291;52.010;4.446;2023-09-08T02:19:13;77709.50;;;-144.67;100.00
47522;BME280;32291;52.010;4.446;2023-09-08T02:20:16;77700.94;;;-144.67;100.00
47522;BME280;32291;52.010;4.446;2023-09-08T02:21:18;77705.22;;;-144.67;100.00
47522;BME280;32291;52.010;4.446;2023-09-08T02:22:25;77709.50;;;-144.67;100.00
47522;BME280;32291;52.010;4.446;2023-09-08T02:23:32;77711.66;;;-144.67;100.00
47522;BME280;32291;52.010;4.446;2023-09-08T02:24:35;77715.94;;;-144.67;100.00
47522;BME280;32291;52.010;4.446;2023-09-08T02:25:42;77718.06;;;-144.67;100.00
47522;BME280;32291;52.010;4.446;2023-09-08T02:26:49;77718.06;;;-144.67;100.00
47522;BME280;32291;52.010;4.446;2023-09-08T02:27:52;77720.22;;;-144.67;100.00
47522;BME280;32291;52.010;4.446;2023-09-08T02:28:55;77713.78;;;-144.67;100.00
47522;BME280;32291;52.010;4.446;2023-09-08T02:29:58;77715.94;;;-144.67;100.00
47522;BME280;32291;52.010;4.446;2023-09-08T02:31:00;77720.22;;;-144.67;100.00
47522;BME280;32291;52.010;4.446;2023-09-08T02:32:04;77722.34;;;-144.67;100.00
47522;BME280;32291;52.010;4.446;2023-09-08T02:33:06;77724.50;;;-144.67;100.00
47522;BME280;32291;52.010;4.446;2023-09-08T02:34:12;77726.63;;;-144.67;100.00
47522;BME280;32291;52.010;4.446;2023-09-08T02:35:16;77722.34;;;-144.67;100.00
47522;BME280;32291;52.010;4.446;2023-09-08T02:36:18;77726.63;;;-144.67;100.00
47522;BME280;32291;52.010;4.446;2023-09-08T02:37:27;77728.78;;;-144.67;100.00
47522;BME280;32291;52.010;4.446;2023-09-08T02:38:34;77728.78;;;-144.67;100.00
47522;BME280;32291;52.010;4.446;2023-09-08T02:39:40;77726.63;;;-144.67;100.00
47522;BME280;32291;52.010;4.446;2023-09-08T02:40:47;77728.78;;;-144.67;100.00
47522;BME280;32291;52.010;4.446;2023-09-08T02:41:53;77726.63;;;-144.67;100.00
47522;BME280;32291;52.010;4.446;2023-09-08T02:43:00;77730.91;;;-144.67;100.00
47522;BME280;32291;52.010;4.446;2023-09-08T02:44:06;77730.91;;;-144.67;100.00
47522;BME280;32291;52.010;4.446;2023-09-08T02:45:12;77730.91;;;-144.67;100.00
47522;BME280;32291;52.010;4.446;2023-09-08T02:46:19;77728.78;;;-144.67;100.00
47522;BME280;32291;52.010;4.446;2023-09-08T02:47:33;77733.06;;;-144.67;100.00
47522;BME280;32291;52.010;4.446;2023-09-08T02:48:36;77730.91;;;-144.67;100.00
47522;BME280;32291;52.010;4.446;2023-09-08T02:49:43;77739.47;;;-144.67;100.00
47522;BME280;32291;52.010;4.446;2023-09-08T02:50:46;77733.06;;;-144.67;100.00
47522;BME280;32291;52.010;4.446;2023-09-08T02:51:48;77739.47;;;-144.67;100.00
47522;BME280;32291;52.010;4.446;2023-09-08T02:52:53;77735.19;;;-144.67;100.00
47522;BME280;32291;52.010;4.446;2023-09-08T02:53:58;77739.47;;;-144.67;100.00
47522;BME280;32291;52.010;4.446;2023-09-08T02:55:01;77739.47;;;-144.67;100.00
47522;BME280;32291;52.010;4.446;2023-09-08T02:56:07;77739.47;;;-144.67;100.00
47522;BME280;32291;52.010;4.446;2023-09-08T02:57:23;77737.34;;;-144.67;100.00
47522;BME280;32291;52.010;4.446;2023-09-08T02:58:31;77735.19;;;-144.67;100.00
47522;BME280;32291;52.010;4.446;2023-09-08T02:59:37;77741.63;;;-144.67;100.00
47522;BME280;32291;52.010;4.446;2023-09-08T03:00:39;77739.47;;;-144.67;100.00
47522;BME280;32291;52.010;4.446;2023-09-08T03:01:42;77739.47;;;-144.67;100.00
47522;BME280;32291;52.010;4.446;2023-09-08T03:02:44;77739.47;;;-144.67;100.00
47522;BME280;32291;52.010;4.446;2023-09-08T03:03:47;77739.47;;;-144.67;100.00
47522;BME280;32291;52.010;4.446;2023-09-08T03:04:50;77743.75;;;-144.67;100.00
47522;BME280;32291;52.010;4.446;2023-09-08T03:05:58;77739.47;;;-144.67;100.00
47522;BME280;32291;52.010;4.446;2023-09-08T03:07:05;77745.91;;;-144.67;100.00
47522;BME280;32291;52.010;4.446;2023-09-08T03:08:12;77743.75;;;-144.67;100.00
47522;BME280;32291;52.010;4.446;2023-09-08T03:09:19;77743.75;;;-144.67;100.00
47522;BME280;32291;52.010;4.446;2023-09-08T03:10:22;77748.03;;;-144.67;100.00
47522;BME280;32291;52.010;4.446;2023-09-08T03:11:29;77750.19;;;-144.67;100.00
47522;BME280;32291;52.010;4.446;2023-09-08T03:12:31;77743.75;;;-144.67;100.00
47522;BME280;32291;52.010;4.446;2023-09-08T03:13:34;77743.75;;;-144.67;100.00
47522;BME280;32291;52.010;4.446;2023-09-08T03:14:37;77745.91;;;-144.67;100.00
47522;BME280;32291;52.010;4.446;2023-09-08T03:15:47;77752.31;;;-144.67;100.00
47522;BME280;32291;52.010;4.446;2023-09-08T03:16:49;77748.03;;;-144.67;100.00
47522;BME280;32291;52.010;4.446;2023-09-08T03:17:58;77748.03;;;-144.67;100.00
47522;BME280;32291;52.010;4.446;2023-09-08T03:19:05;77752.31;;;-144.67;100.00
47522;BME280;32291;52.010;4.446;2023-09-08T03:20:12;77756.59;;;-144.67;100.00
47522;BME280;32291;52.010;4.446;2023-09-08T03:21:15;77758.75;;;-144.67;100.00
47522;BME280;32291;52.010;4.446;2023-09-08T03:22:17;77756.59;;;-144.67;100.00
47522;BME280;32291;52.010;4.446;2023-09-08T03:23:20;77756.59;;;-144.67;100.00
47522;BME280;32291;52.010;4.446;2023-09-08T03:24:23;77756.59;;;-144.67;100.00
47522;BME280;32291;52.010;4.446;2023-09-08T03:25:31;77758.75;;;-144.67;100.00
47522;BME280;32291;52.010;4.446;2023-09-08T03:26:38;77763.03;;;-144.67;100.00
47522;BME280;32291;52.010;4.446;2023-09-08T03:27:42;77758.75;;;-144.67;100.00
47522;BME280;32291;52.010;4.446;2023-09-08T03:28:45;77760.88;;;-144.67;100.00
47522;BME280;32291;52.010;4.446;2023-09-08T03:29:47;77760.88;;;-144.67;100.00
47522;BME280;32291;52.010;4.446;2023-09-08T03:30:53;77756.59;;;-144.67;100.00
47522;BME280;32291;52.010;4.446;2023-09-08T03:32:01;77767.31;;;-144.67;100.00
47522;BME280;32291;52.010;4.446;2023-09-08T03:33:03;77765.16;;;-144.67;100.00
47522;BME280;32291;52.010;4.446;2023-09-08T03:34:05;77760.88;;;-144.67;100.00
47522;BME280;32291;52.010;4.446;2023-09-08T03:35:08;77763.03;;;-144.67;100.00
47522;BME280;32291;52.010;4.446;2023-09-08T03:36:11;77763.03;;;-144.67;100.00
47522;BME280;32291;52.010;4.446;2023-09-08T03:37:13;77773.72;;;-144.67;100.00
47522;BME280;32291;52.010;4.446;2023-09-08T03:38:17;77769.44;;;-144.67;100.00
47522;BME280;32291;52.010;4.446;2023-09-08T03:39:30;77767.31;;;-144.67;100.00
47522;BME280;32291;52.010;4.446;2023-09-08T03:40:32;77765.16;;;-144.67;100.00
47522;BME280;32291;52.010;4.446;2023-09-08T03:41:34;77760.88;;;-144.67;100.00
47522;BME280;32291;52.010;4.446;2023-09-08T03:42:37;77765.16;;;-144.67;100.00
47522;BME280;32291;52.010;4.446;2023-09-08T03:43:42;77765.16;;;-144.67;100.00
47522;BME280;32291;52.010;4.446;2023-09-08T03:44:44;77760.88;;;-144.67;100.00
47522;BME280;32291;52.010;4.446;2023-09-08T03:45:47;77769.44;;;-144.67;100.00
47522;BME280;32291;52.010;4.446;2023-09-08T03:46:57;77771.59;;;-144.67;100.00
47522;BME280;32291;52.010;4.446;2023-09-08T03:48:00;77773.72;;;-144.67;100.00
47522;BME280;32291;52.010;4.446;2023-09-08T03:49:02;77769.44;;;-144.67;100.00
47522;BME280;32291;52.010;4.446;2023-09-08T03:50:06;77773.72;;;-144.67;100.00
47522;BME280;32291;52.010;4.446;2023-09-08T03:51:19;77773.72;;;-144.67;100.00
47522;BME280;32291;52.010;4.446;2023-09-08T03:52:29;77778.00;;;-144.67;100.00
47522;BME280;32291;52.010;4.446;2023-09-08T03:53:36;77769.44;;;-144.67;100.00
47522;BME280;32291;52.010;4.446;2023-09-08T03:54:38;77773.72;;;-144.67;100.00
47522;BME280;32291;52.010;4.446;2023-09-08T03:55:43;77767.31;;;-144.67;100.00
47522;BME280;32291;52.010;4.446;2023-09-08T03:56:46;77775.88;;;-144.67;100.00
47522;BME280;32291;52.010;4.446;2023-09-08T03:57:48;77778.00;;;-144.67;100.00
47522;BME280;32291;52.010;4.446;2023-09-08T03:58:53;77782.28;;;-144.67;100.00
47522;BME280;32291;52.010;4.446;2023-09-08T03:59:56;77780.16;;;-144.67;100.00
47522;BME280;32291;52.010;4.446;2023-09-08T04:01:09;77778.00;;;-144.67;100.00
47522;BME280;32291;52.010;4.446;2023-09-08T04:02:16;77782.28;;;-144.67;100.00
47522;BME280;32291;52.010;4.446;2023-09-08T04:03:18;77786.56;;;-144.67;100.00
47522;BME280;32291;52.010;4.446;2023-09-08T04:04:22;77786.56;;;-144.67;100.00
47522;BME280;32291;52.010;4.446;2023-09-08T04:05:25;77790.84;;;-144.67;100.00
47522;BME280;32291;52.010;4.446;2023-09-08T04:06:30;77782.28;;;-144.67;100.00
47522;BME280;32291;52.010;4.446;2023-09-08T04:07:33;77790.84;;;-144.67;100.00
47522;BME280;32291;52.010;4.446;2023-09-08T04:08:43;77786.56;;;-144.67;100.00
47522;BME280;32291;52.010;4.446;2023-09-08T04:09:45;77788.72;;;-144.67;100.00
47522;BME280;32291;52.010;4.446;2023-09-08T04:10:52;77793.00;;;-144.67;100.00
47522;BME280;32291;52.010;4.446;2023-09-08T04:11:54;77795.13;;;-144.67;100.00
47522;BME280;32291;52.010;4.446;2023-09-08T04:12:57;77795.13;;;-144.67;100.00
47522;BME280;32291;52.010;4.446;2023-09-08T04:13:59;77797.28;;;-144.67;100.00
47522;BME280;32291;52.010;4.446;2023-09-08T04:15:01;77797.28;;;-144.67;100.00
47522;BME280;32291;52.010;4.446;2023-09-08T04:16:04;77799.41;;;-144.67;100.00
47522;BME280;32291;52.010;4.446;2023-09-08T04:17:11;77795.13;;;-144.67;100.00
47522;BME280;32291;52.010;4.446;2023-09-08T04:18:13;77795.13;;;-144.67;100.00
47522;BME280;32291;52.010;4.446;2023-09-08T04:19:16;77795.13;;;-144.67;100.00
47522;BME280;32291;52.010;4.446;2023-09-08T04:20:18;77807.97;;;-144.67;100.00
47522;BME280;32291;52.010;4.446;2023-09-08T04:21:20;77807.97;;;-144.67;100.00
47522;BME280;32291;52.010;4.446;2023-09-08T04:22:23;77799.41;;;-144.67;100.00
47522;BME280;32291;52.010;4.446;2023-09-08T04:23:27;77803.69;;;-144.67;100.00
47522;BME280;32291;52.010;4.446;2023-09-08T04:24:37;77799.41;;;-144.67;100.00
47522;BME280;32291;52.010;4.446;2023-09-08T04:25:45;77803.69;;;-144.67;100.00
47522;BME280;32291;52.010;4.446;2023-09-08T04:26:52;77795.13;;;-144.67;100.00
47522;BME280;32291;52.010;4.446;2023-09-08T04:27:59;77795.13;;;-144.67;100.00
47522;BME280;32291;52.010;4.446;2023-09-08T04:29:06;77803.69;;;-144.67;100.00
47522;BME280;32291;52.010;4.446;2023-09-08T04:30:13;77795.13;;;-144.67;100.00
47522;BME280;32291;52.010;4.446;2023-09-08T04:31:20;77799.41;;;-144.67;100.00
47522;BME280;32291;52.010;4.446;2023-09-08T04:32:28;77803.69;;;-144.67;100.00
47522;BME280;32291;52.010;4.446;2023-09-08T04:33:30;77797.28;;;-144.67;100.00
47522;BME280;32291;52.010;4.446;2023-09-08T04:34:41;77803.69;;;-144.67;100.00
47522;BME280;32291;52.010;4.446;2023-09-08T04:35:48;77805.84;;;-144.67;100.00
47522;BME280;32291;52.010;4.446;2023-09-08T04:36:51;77803.69;;;-144.67;100.00
47522;BME280;32291;52.010;4.446;2023-09-08T04:37:57;77805.84;;;-144.67;100.00
47522;BME280;32291;52.010;4.446;2023-09-08T04:39:05;77810.13;;;-144.67;100.00
47522;BME280;32291;52.010;4.446;2023-09-08T04:40:11;77810.13;;;-144.67;100.00
47522;BME280;32291;52.010;4.446;2023-09-08T04:41:13;77807.97;;;-144.67;100.00
47522;BME280;32291;52.010;4.446;2023-09-08T04:42:16;77807.97;;;-144.67;100.00
47522;BME280;32291;52.010;4.446;2023-09-08T04:43:22;77816.53;;;-144.67;100.00
47522;BME280;32291;52.010;4.446;2023-09-08T04:44:26;77816.53;;;-144.67;100.00
47522;BME280;32291;52.010;4.446;2023-09-08T04:45:28;77816.53;;;-144.67;100.00
47522;BME280;32291;52.010;4.446;2023-09-08T04:46:31;77816.53;;;-144.67;100.00
47522;BME280;32291;52.010;4.446;2023-09-08T04:47:32;77818.69;;;-144.67;100.00
47522;BME280;32291;52.010;4.446;2023-09-08T04:48:34;77820.84;;;-144.67;100.00
47522;BME280;32291;52.010;4.446;2023-09-08T04:49:36;77820.84;;;-144.67;100.00
47522;BME280;32291;52.010;4.446;2023-09-08T04:50:44;77825.09;;;-144.67;100.00
47522;BME280;32291;52.010;4.446;2023-09-08T04:51:46;77825.09;;;-144.67;100.00
47522;BME280;32291;52.010;4.446;2023-09-08T04:52:53;77820.84;;;-144.67;100.00
47522;BME280;32291;52.010;4.446;2023-09-08T04:54:03;77820.84;;;-144.67;100.00
47522;BME280;32291;52.010;4.446;2023-09-08T04:55:06;77831.53;;;-144.67;100.00
47522;BME280;32291;52.010;4.446;2023-09-08T04:56:08;77831.53;;;-144.67;100.00
47522;BME280;32291;52.010;4.446;2023-09-08T04:57:10;77831.53;;;-144.67;100.00
47522;BME280;32291;52.010;4.446;2023-09-08T04:58:13;77837.97;;;-144.67;100.00
47522;BME280;32291;52.010;4.446;2023-09-08T04:59:15;77833.66;;;-144.67;100.00
47522;BME280;32291;52.010;4.446;2023-09-08T05:00:22;77835.81;;;-144.67;100.00
47522;BME280;32291;52.010;4.446;2023-09-08T05:01:29;77837.97;;;-144.67;100.00
47522;BME280;32291;52.010;4.446;2023-09-08T05:02:34;77833.66;;;-144.67;100.00
47522;BME280;32291;52.010;4.446;2023-09-08T05:03:42;77835.81;;;-144.67;100.00
47522;BME280;32291;52.010;4.446;2023-09-08T05:04:49;77837.97;;;-144.67;100.00
47522;BME280;32291;52.010;4.446;2023-09-08T05:05:57;77840.09;;;-144.67;100.00
47522;BME280;32291;52.010;4.446;2023-09-08T05:06:59;77833.66;;;-144.67;100.00
47522;BME280;32291;52.010;4.446;2023-09-08T05:08:02;77837.97;;;-144.67;100.00
47522;BME280;32291;52.010;4.446;2023-09-08T05:09:09;77842.22;;;-144.67;100.00
47522;BME280;32291;52.010;4.446;2023-09-08T05:10:16;77842.22;;;-144.67;100.00
47522;BME280;32291;52.010;4.446;2023-09-08T05:11:23;77842.22;;;-144.67;100.00
47522;BME280;32291;52.010;4.446;2023-09-08T05:12:31;77842.22;;;-144.67;100.00
47522;BME280;32291;52.010;4.446;2023-09-08T05:13:38;77833.66;;;-144.67;100.00
47522;BME280;32291;52.010;4.446;2023-09-08T05:14:45;77837.97;;;-144.67;100.00
47522;BME280;32291;52.010;4.446;2023-09-08T05:15:51;77842.22;;;-144.67;100.00
47522;BME280;32291;52.010;4.446;2023-09-08T05:16:54;77837.97;;;-144.67;100.00
47522;BME280;32291;52.010;4.446;2023-09-08T05:18:03;77842.22;;;-144.67;100.00
47522;BME280;32291;52.010;4.446;2023-09-08T05:19:06;77842.22;;;-144.67;100.00
47522;BME280;32291;52.010;4.446;2023-09-08T05:20:09;77846.50;;;-144.67;100.00
47522;BME280;32291;52.010;4.446;2023-09-08T05:21:16;77842.22;;;-144.67;100.00
47522;BME280;32291;52.010;4.446;2023-09-08T05:22:23;77846.50;;;-144.67;100.00
47522;BME280;32291;52.010;4.446;2023-09-08T05:23:31;77840.09;;;-144.67;100.00
47522;BME280;32291;52.010;4.446;2023-09-08T05:24:33;77842.22;;;-144.67;100.00
47522;BME280;32291;52.010;4.446;2023-09-08T05:25:35;77850.81;;;-144.67;100.00
47522;BME280;32291;52.010;4.446;2023-09-08T05:26:38;77844.38;;;-144.67;100.00
47522;BME280;32291;52.010;4.446;2023-09-08T05:27:47;77846.50;;;-144.67;100.00
47522;BME280;32291;52.010;4.446;2023-09-08T05:28:55;77846.50;;;-144.67;100.00
47522;BME280;32291;52.010;4.446;2023-09-08T05:29:58;77850.81;;;-144.67;100.00
47522;BME280;32291;52.010;4.446;2023-09-08T05:31:01;77850.81;;;-144.67;100.00
47522;BME280;32291;52.010;4.446;2023-09-08T05:32:08;77842.22;;;-144.67;100.00
47522;BME280;32291;52.010;4.446;2023-09-08T05:33:14;77848.66;;;-144.67;100.00
47522;BME280;32291;52.010;4.446;2023-09-08T05:34:21;77846.50;;;-144.67;100.00
47522;BME280;32291;52.010;4.446;2023-09-08T05:35:23;77842.22;;;-144.67;100.00
47522;BME280;32291;52.010;4.446;2023-09-08T05:36:30;77840.09;;;-144.67;100.00